Cuovddatmohkki, Norway

4:16 AM CEST on September 26, 2016 (GMT +0200)
Alta | | Change Station

Elev 10 ft 69.98 °N, 23.36 °E | Updated 26 minutes ago

Overcast
Overcast
48 °F
Feels Like 48 °F
N
2
Wind Variable Wind from SSW

Today
High -- | Low -- °F
--% Chance of Precip.
Yesterday
High -- | Low -- °F
Precip. -- in
Pressure 30.04 in
Visibility 6.2 miles
Clouds Overcast 5100 ft
Dew Point 45 °F
Humidity 87%
Rainfall 0.00 in
Snow Depth Not available.
6:18 AM 6:05 PM
Waning Crescent, 23% visible
METAR ENAT 260150Z AUTO 21002KT 9999 OVC051/// 09/07 Q1017 RMK WIND 700FT 18004KT
Pressure 30.04 in
Visibility 6.2 miles
Clouds Overcast 5100 ft
Dew Point 45 °F
Humidity 87%
Rainfall 0.00 in
Snow Depth Not available.
6:18 AM 6:05 PM
Waning Crescent, 23% visible
METAR ENAT 260150Z AUTO 21002KT 9999 OVC051/// 09/07 Q1017 RMK WIND 700FT 18004KT

10-Day Weather Forecast

×

Almanac

Astronomy

Sep. 26, 2016 Rise Set
Actual Time
Civil Twilight
Nautical Twilight
Astronomical Twilight
Moon
Length of Visible Light
Length of Day
Tomorrow will be .
, % of the Moon is Illuminated

Today's Extremes

Country Highs Country Lows

Community

WunderPhotos

Upload Photos

1,941,811 photos uploaded!

WunderBlog® & News

Nearby

Air Quality

  Air Quality AQ Index Pollutant
Not available.

Snow Depth

Station Depth Elevation

Earthquake Activity

City Distance Mag. Time & Date
Minimum magnitude displayed is 2.5.

Coastal Water Temperatures

Place Temperature

Stations

Nearby Weather Stations

Station Location Temp. Windchill Dew Point Humidity Wind Precip. Elev Updated Type